createdAt,value
2018-03-11T00:01:31.297Z,7.73
2018-03-11T00:03:58.733Z,7.20
2018-03-11T00:06:26.538Z,7.30
2018-03-11T00:08:53.997Z,7.50
2018-03-11T00:11:21.476Z,7.10
2018-03-11T00:13:48.941Z,7.70
2018-03-11T00:16:16.392Z,7.43
2018-03-11T00:18:44.333Z,7.30
2018-03-11T00:21:11.772Z,6.80
2018-03-11T00:23:39.235Z,7.43
2018-03-11T00:26:06.669Z,8.23
2018-03-11T00:28:34.143Z,7.57
2018-03-11T00:31:01.670Z,7.70
2018-03-11T00:33:29.100Z,7.77
2018-03-11T00:35:56.531Z,7.80
2018-03-11T00:38:23.985Z,7.90
2018-03-11T00:40:51.449Z,8.47
2018-03-11T00:43:18.973Z,8.03
2018-03-11T00:45:46.480Z,8.83
2018-03-11T00:48:20.767Z,8.33
2018-03-11T00:51:12.023Z,8.90
2018-03-11T00:53:40.583Z,8.77
2018-03-11T00:56:08.645Z,7.80
2018-03-11T00:58:36.145Z,8.33
2018-03-11T01:01:03.665Z,8.67
2018-03-11T01:03:35.965Z,9.17
2018-03-11T01:08:38.207Z,8.27
2018-03-11T01:11:19.935Z,8.50
2018-03-11T01:13:50.171Z,8.27
2018-03-11T01:16:18.464Z,7.83
2018-03-11T01:18:46.033Z,7.50
2018-03-11T01:21:13.582Z,7.83
2018-03-11T01:23:41.127Z,8.20
2018-03-11T01:26:08.637Z,7.50
2018-03-11T01:28:36.097Z,8.07
2018-03-11T01:31:03.540Z,7.70
2018-03-11T01:33:31.007Z,7.13
2018-03-11T01:35:58.471Z,8.23
2018-03-11T01:38:25.938Z,7.10
2018-03-11T01:40:53.405Z,7.50
2018-03-11T01:43:20.879Z,8.43
2018-03-11T01:45:48.334Z,7.60
2018-03-11T01:48:15.819Z,7.93
2018-03-11T01:50:43.289Z,8.13
2018-03-11T01:53:10.721Z,8.60
2018-03-11T01:55:38.201Z,8.37
2018-03-11T01:58:05.651Z,8.80
2018-03-11T02:00:33.129Z,8.70
2018-03-11T02:03:00.586Z,8.53
2018-03-11T02:05:28.019Z,8.67
2018-03-11T02:07:55.470Z,8.97
2018-03-11T02:10:22.920Z,9.97
2018-03-11T02:12:50.361Z,9.63
2018-03-11T02:15:17.830Z,9.70
2018-03-11T02:17:45.489Z,10.03
2018-03-11T02:20:12.964Z,9.43
2018-03-11T02:22:40.426Z,10.43
2018-03-11T02:25:07.892Z,10.07
2018-03-11T02:27:35.340Z,10.77
2018-03-11T02:30:02.800Z,10.87
2018-03-11T02:32:30.450Z,9.77
2018-03-11T02:34:57.899Z,11.10
2018-03-11T02:37:25.346Z,11.43
2018-03-11T02:39:52.781Z,11.20
2018-03-11T02:42:20.289Z,11.10
2018-03-11T02:44:47.761Z,11.27
2018-03-11T02:47:15.305Z,11.93
2018-03-11T02:49:42.693Z,12.00
2018-03-11T02:52:10.172Z,11.37
2018-03-11T02:54:37.650Z,11.63
2018-03-11T02:57:05.121Z,12.40
2018-03-11T02:59:32.585Z,12.00
2018-03-11T03:02:00.045Z,12.30
2018-03-11T03:04:27.501Z,12.40
2018-03-11T03:06:55.166Z,12.77
2018-03-11T03:09:22.622Z,13.50
2018-03-11T03:11:50.161Z,12.93
2018-03-11T03:14:17.596Z,12.37
2018-03-11T03:16:45.075Z,12.20
2018-03-11T03:19:12.533Z,13.40
2018-03-11T03:21:39.967Z,13.03
2018-03-11T03:24:07.440Z,13.67
2018-03-11T03:26:34.961Z,13.63
2018-03-11T03:29:02.460Z,13.53
2018-03-11T03:31:29.920Z,13.27
2018-03-11T03:33:57.392Z,13.80
2018-03-11T03:36:24.854Z,14.13
2018-03-11T03:38:52.304Z,14.00
2018-03-11T03:41:34.710Z,14.30
2018-03-11T03:44:02.172Z,14.13
2018-03-11T03:46:29.638Z,14.87
2018-03-11T03:48:57.104Z,15.07
2018-03-11T03:51:24.595Z,15.77
2018-03-11T03:53:52.041Z,14.50
2018-03-11T03:56:19.676Z,15.30
2018-03-11T03:58:47.135Z,16.63
2018-03-11T04:01:14.594Z,15.70
2018-03-11T04:03:42.036Z,16.07
2018-03-11T04:06:09.540Z,16.53
2018-03-11T04:08:36.990Z,16.10
2018-03-11T04:11:04.528Z,17.60
2018-03-11T04:13:31.964Z,16.50
2018-03-11T04:15:59.460Z,16.87
2018-03-11T04:18:26.916Z,17.73
2018-03-11T04:20:54.870Z,16.80
2018-03-11T04:23:22.330Z,17.80
2018-03-11T04:25:49.822Z,17.27
2018-03-11T04:28:17.270Z,18.53
2018-03-11T04:30:44.736Z,17.37
2018-03-11T04:33:12.191Z,19.40
2018-03-11T04:35:39.688Z,18.03
2018-03-11T04:38:07.172Z,18.63
2018-03-11T04:40:34.620Z,19.17
2018-03-11T04:43:02.158Z,18.63
2018-03-11T04:45:29.642Z,19.17
2018-03-11T04:47:57.100Z,20.13
2018-03-11T04:50:24.599Z,19.77
2018-03-11T04:52:52.070Z,19.33
2018-03-11T04:55:19.516Z,19.13
2018-03-11T04:57:46.974Z,20.60
2018-03-11T05:00:14.434Z,20.67
2018-03-11T05:02:41.886Z,19.53
2018-03-11T05:05:09.360Z,19.80
2018-03-11T05:07:36.852Z,19.80
2018-03-11T05:10:04.300Z,20.97
2018-03-11T05:12:31.742Z,19.70
2018-03-11T05:14:59.234Z,20.27
2018-03-11T05:17:26.682Z,21.07
2018-03-11T05:19:54.126Z,20.47
2018-03-11T05:22:21.601Z,20.57
2018-03-11T05:24:49.068Z,20.80
2018-03-11T05:27:16.518Z,20.53
2018-03-11T05:29:43.976Z,21.17
2018-03-11T05:32:11.450Z,20.43
2018-03-11T05:34:38.923Z,22.67
2018-03-11T05:37:06.351Z,22.23
2018-03-11T05:39:33.791Z,21.67
2018-03-11T05:42:01.254Z,21.30
2018-03-11T05:44:28.802Z,22.20
2018-03-11T05:46:56.270Z,22.67
2018-03-11T05:49:23.723Z,21.67
2018-03-11T05:51:51.232Z,22.57
2018-03-11T05:54:18.727Z,22.33
2018-03-11T05:56:46.200Z,22.10
2018-03-11T05:59:14.528Z,21.90
2018-03-11T06:01:41.983Z,21.93
2018-03-11T06:04:09.444Z,21.57
2018-03-11T06:06:36.894Z,22.73
2018-03-11T06:09:04.396Z,21.50
2018-03-11T06:11:31.872Z,23.20
2018-03-11T06:13:59.372Z,22.50
2018-03-11T06:16:26.814Z,22.43
2018-03-11T06:18:54.242Z,22.73
2018-03-11T06:21:22.428Z,21.73
2018-03-11T06:23:49.946Z,22.57
2018-03-11T06:26:17.499Z,21.60
2018-03-11T06:28:44.988Z,21.23
2018-03-11T06:31:13.364Z,22.43
2018-03-11T06:33:41.546Z,22.93
2018-03-11T06:36:09.072Z,23.33
2018-03-11T06:38:37.514Z,21.93
2018-03-11T06:41:05.044Z,22.77
2018-03-11T06:43:32.572Z,22.13
2018-03-11T06:46:00.079Z,21.70
2018-03-11T06:51:10.399Z,21.23
2018-03-11T06:53:37.867Z,22.07
2018-03-11T06:56:05.316Z,21.87
2018-03-11T06:58:32.780Z,21.80
2018-03-11T07:01:00.247Z,22.47
2018-03-11T07:03:27.709Z,22.27
2018-03-11T07:05:55.209Z,20.93
2018-03-11T07:08:22.705Z,21.87
2018-03-11T07:10:50.217Z,21.67
2018-03-11T07:13:17.657Z,22.40
2018-03-11T07:15:45.102Z,23.07
2018-03-11T07:18:12.555Z,21.40
2018-03-11T07:20:39.999Z,21.07
2018-03-11T07:23:07.505Z,20.73
2018-03-11T07:25:34.954Z,21.97
2018-03-11T07:28:02.451Z,22.23
2018-03-11T07:30:29.922Z,22.17
2018-03-11T07:32:57.375Z,21.73
2018-03-11T07:35:24.847Z,21.43
2018-03-11T07:37:52.303Z,20.83
2018-03-11T07:40:19.793Z,21.83
2018-03-11T07:42:47.275Z,21.77
2018-03-11T07:45:14.729Z,21.23
2018-03-11T07:47:42.199Z,21.93
2018-03-11T07:50:09.641Z,21.37
2018-03-11T07:52:37.135Z,21.20
2018-03-11T07:55:04.607Z,21.30
2018-03-11T07:57:32.089Z,21.67
2018-03-11T07:59:59.613Z,21.47
2018-03-11T08:02:27.053Z,21.70
2018-03-11T08:04:54.506Z,22.73
2018-03-11T08:07:21.976Z,20.90
2018-03-11T08:09:49.455Z,20.17
2018-03-11T08:12:16.971Z,20.87
2018-03-11T08:14:44.437Z,23.00
2018-03-11T08:17:11.930Z,21.10
2018-03-11T08:19:39.446Z,21.03
2018-03-11T08:22:07.894Z,21.60
2018-03-11T08:24:35.354Z,21.63
2018-03-11T08:27:02.798Z,21.97
2018-03-11T08:29:30.287Z,21.57
2018-03-11T08:31:57.773Z,21.17
2018-03-11T08:34:25.301Z,21.73
2018-03-11T08:36:52.791Z,21.70
2018-03-11T08:39:20.265Z,21.43
2018-03-11T08:41:47.725Z,21.00
2018-03-11T08:44:15.175Z,21.33
2018-03-11T08:46:42.642Z,21.33
2018-03-11T08:49:10.103Z,21.53
2018-03-11T08:51:37.645Z,21.03
2018-03-11T08:54:05.221Z,22.07
2018-03-11T08:56:32.712Z,21.30
2018-03-11T08:59:00.222Z,20.40
2018-03-11T09:01:27.713Z,19.30
2018-03-11T09:03:55.214Z,19.53
2018-03-11T09:06:22.660Z,20.10
2018-03-11T09:08:50.141Z,19.73
2018-03-11T09:11:17.686Z,19.63
2018-03-11T09:13:45.196Z,18.67
2018-03-11T09:16:12.692Z,18.90
2018-03-11T09:18:40.120Z,18.47
2018-03-11T09:21:07.635Z,18.13
2018-03-11T09:23:35.106Z,17.57
2018-03-11T09:26:02.603Z,16.57
2018-03-11T09:28:30.096Z,17.77
2018-03-11T09:30:57.624Z,17.43
2018-03-11T09:33:25.166Z,17.10
2018-03-11T09:35:52.692Z,16.53
2018-03-11T09:38:20.185Z,17.13
2018-03-11T09:40:47.753Z,16.37
2018-03-11T09:43:15.203Z,15.43
2018-03-11T09:45:42.712Z,15.50
2018-03-11T09:48:10.180Z,15.37
2018-03-11T09:50:37.643Z,15.02
2018-03-11T09:53:05.166Z,14.68
2018-03-11T09:55:32.654Z,14.48
2018-03-11T09:58:00.121Z,14.30
2018-03-11T10:00:27.599Z,12.95
2018-03-11T10:02:55.058Z,13.52
2018-03-11T10:05:22.534Z,14.48
2018-03-11T10:07:49.979Z,13.93
2018-03-11T10:10:17.484Z,13.27
2018-03-11T10:12:44.961Z,13.55
2018-03-11T10:15:12.418Z,12.85
2018-03-11T10:17:39.879Z,12.80
2018-03-11T10:20:07.362Z,11.95
2018-03-11T10:22:34.836Z,11.70
2018-03-11T10:25:02.273Z,12.48
2018-03-11T10:27:29.811Z,12.93
2018-03-11T10:29:57.274Z,12.20
2018-03-11T10:32:24.763Z,12.05
2018-03-11T10:34:53.813Z,12.23
2018-03-11T10:37:21.307Z,13.38
2018-03-11T10:39:49.055Z,11.70
2018-03-11T10:42:16.621Z,11.77
2018-03-11T10:44:44.308Z,12.02
2018-03-11T10:47:13.041Z,12.60
2018-03-11T10:49:41.519Z,13.77
2018-03-11T10:52:09.318Z,11.93
2018-03-11T10:54:37.069Z,11.35
2018-03-11T10:57:04.633Z,11.43
2018-03-11T10:59:35.571Z,10.95
2018-03-11T11:02:08.741Z,10.63
2018-03-11T11:04:41.883Z,10.98
2018-03-11T11:07:09.426Z,11.07
2018-03-11T11:09:36.899Z,10.85
2018-03-11T11:12:04.365Z,10.65
2018-03-11T11:14:31.865Z,10.98
2018-03-11T11:16:59.373Z,11.50
2018-03-11T11:19:26.836Z,10.45
2018-03-11T11:21:54.321Z,11.05
2018-03-11T11:24:21.794Z,10.40
2018-03-11T11:26:49.296Z,9.90
2018-03-11T11:29:16.780Z,10.93
2018-03-11T11:31:45.214Z,10.93
2018-03-11T11:34:12.717Z,11.07
2018-03-11T11:36:40.210Z,10.23
2018-03-11T11:39:07.778Z,9.63
2018-03-11T11:41:35.304Z,10.10
2018-03-11T11:44:02.804Z,10.02
2018-03-11T11:46:30.350Z,9.32
2018-03-11T11:48:57.878Z,9.70
2018-03-11T11:51:25.416Z,9.43
2018-03-11T11:53:52.915Z,10.00
2018-03-11T11:56:21.482Z,9.55
2018-03-11T11:58:49.151Z,8.80
2018-03-11T12:01:16.775Z,7.75
2018-03-11T12:03:44.306Z,8.35
2018-03-11T12:06:11.866Z,7.65
2018-03-11T12:08:39.340Z,7.62
2018-03-11T12:11:06.794Z,7.50
2018-03-11T12:13:34.288Z,7.50
2018-03-11T12:16:01.912Z,7.03
2018-03-11T12:18:29.408Z,6.87
2018-03-11T12:20:56.964Z,7.53
2018-03-11T12:23:24.451Z,6.55
2018-03-11T12:25:51.950Z,7.18
2018-03-11T12:28:19.432Z,7.30
2018-03-11T12:30:46.992Z,6.72
2018-03-11T12:33:14.419Z,6.93
2018-03-11T12:35:41.895Z,8.27
2018-03-11T12:38:10.073Z,7.12
2018-03-11T12:40:37.574Z,7.07
2018-03-11T12:43:05.100Z,6.55
2018-03-11T12:45:32.656Z,5.93
2018-03-11T12:48:00.113Z,6.10
2018-03-11T12:50:27.632Z,5.82
2018-03-11T12:52:55.166Z,5.68
2018-03-11T12:55:22.680Z,5.55
2018-03-11T12:57:50.144Z,5.47
2018-03-11T13:00:17.656Z,5.50
2018-03-11T13:02:45.168Z,5.40
2018-03-11T13:05:12.686Z,5.55
2018-03-11T13:07:40.237Z,5.62
2018-03-11T13:10:07.760Z,5.72
2018-03-11T13:12:35.238Z,5.82
2018-03-11T13:15:02.718Z,5.57
2018-03-11T13:17:30.220Z,5.20
2018-03-11T13:20:09.566Z,5.43
2018-03-11T13:22:37.118Z,4.93
2018-03-11T13:25:04.589Z,5.43
2018-03-11T13:27:32.143Z,4.85
2018-03-11T13:29:59.656Z,4.90
2018-03-11T13:32:39.083Z,5.12
2018-03-11T13:35:06.567Z,4.90
2018-03-11T13:37:34.034Z,4.97
2018-03-11T13:43:02.420Z,5.12
2018-03-11T13:45:41.900Z,4.95
2018-03-11T13:48:09.373Z,6.43
2018-03-11T13:50:36.938Z,5.43
2018-03-11T13:56:13.160Z,5.07
2018-03-11T13:58:44.206Z,4.87
2018-03-11T14:01:11.787Z,4.60
2018-03-11T14:03:39.245Z,4.40
2018-03-11T14:06:06.783Z,4.55
2018-03-11T14:08:34.543Z,4.80
2018-03-11T14:11:06.948Z,4.85
2018-03-11T14:13:34.503Z,4.40
2018-03-11T14:16:01.974Z,4.18
2018-03-11T14:18:29.417Z,4.00
2018-03-11T14:20:56.924Z,3.95
2018-03-11T14:23:24.365Z,3.72
2018-03-11T14:25:51.806Z,4.00
2018-03-11T14:28:19.296Z,3.78
2018-03-11T14:30:46.755Z,3.72
2018-03-11T14:33:14.336Z,3.80
2018-03-11T14:35:41.837Z,3.92
2018-03-11T14:38:09.587Z,3.30
2018-03-11T14:40:37.128Z,3.20
2018-03-11T14:43:04.641Z,5.68
2018-03-11T14:45:32.129Z,3.87
2018-03-11T14:48:00.331Z,3.78
2018-03-11T14:50:27.919Z,3.67
2018-03-11T14:52:55.472Z,3.40
2018-03-11T14:55:22.951Z,3.20
2018-03-11T14:57:50.399Z,3.53
2018-03-11T15:00:17.931Z,3.05
2018-03-11T15:02:45.401Z,3.10
2018-03-11T15:05:12.917Z,2.70
2018-03-11T15:07:41.011Z,3.20
2018-03-11T15:10:09.039Z,4.50
2018-03-11T15:12:36.506Z,4.47
2018-03-11T15:15:03.949Z,4.78
2018-03-11T15:17:31.397Z,4.85
2018-03-11T15:19:58.845Z,5.20
2018-03-11T15:22:26.303Z,4.47
2018-03-11T15:24:53.780Z,4.78
2018-03-11T15:27:21.245Z,5.25
2018-03-11T15:29:48.697Z,5.57
2018-03-11T15:32:16.180Z,6.75
2018-03-11T15:34:43.661Z,6.37
2018-03-11T15:37:11.179Z,6.28
2018-03-11T15:39:38.633Z,6.28
2018-03-11T15:42:06.124Z,5.60
2018-03-11T15:44:33.633Z,7.95
2018-03-11T15:47:01.091Z,6.40
2018-03-11T15:49:28.569Z,6.10
2018-03-11T15:51:56.116Z,6.15
2018-03-11T15:54:23.568Z,4.90
2018-03-11T15:56:51.104Z,5.05
2018-03-11T15:59:18.563Z,5.62
2018-03-11T16:01:45.985Z,4.53
2018-03-11T16:04:13.437Z,4.85
2018-03-11T16:06:40.873Z,8.73
2018-03-11T16:09:08.325Z,5.72
2018-03-11T16:11:35.811Z,5.25
2018-03-11T16:14:03.301Z,5.07
2018-03-11T16:16:30.794Z,5.10
2018-03-11T16:18:58.305Z,4.75
2018-03-11T16:21:25.815Z,4.57
2018-03-11T16:23:53.385Z,5.15
2018-03-11T16:26:20.864Z,5.37
2018-03-11T16:28:48.371Z,5.80
2018-03-11T16:31:15.833Z,4.97
2018-03-11T16:33:43.294Z,5.25
2018-03-11T16:36:10.737Z,6.03
2018-03-11T16:38:38.205Z,5.50
2018-03-11T16:41:05.669Z,6.32
2018-03-11T16:43:33.129Z,6.60
2018-03-11T16:46:00.583Z,6.57
2018-03-11T16:48:28.197Z,6.20
2018-03-11T16:50:55.681Z,6.28
2018-03-11T16:53:23.118Z,6.50
2018-03-11T16:55:50.579Z,7.00
2018-03-11T16:58:18.029Z,6.97
2018-03-11T17:00:45.492Z,7.10
2018-03-11T17:03:12.929Z,7.57
2018-03-11T17:05:40.402Z,7.12
2018-03-11T17:08:07.862Z,7.45
2018-03-11T17:10:35.361Z,7.65
2018-03-11T17:13:02.833Z,8.13
2018-03-11T17:15:30.301Z,7.85
2018-03-11T17:17:57.773Z,7.90
2018-03-11T17:20:25.255Z,8.70
2018-03-11T17:22:52.727Z,7.95
2018-03-11T17:25:20.325Z,8.82
2018-03-11T17:27:47.807Z,8.27
2018-03-11T17:30:15.329Z,8.93
2018-03-11T17:32:42.877Z,8.82
2018-03-11T17:35:10.377Z,8.45
2018-03-11T17:37:37.850Z,8.73
2018-03-11T17:40:05.321Z,8.52
2018-03-11T17:42:32.828Z,9.25
2018-03-11T17:45:00.295Z,9.05
2018-03-11T17:47:27.749Z,9.23
2018-03-11T17:49:55.295Z,9.15
2018-03-11T17:52:22.763Z,9.27
2018-03-11T17:54:50.233Z,10.13
2018-03-11T17:57:17.720Z,11.20
2018-03-11T17:59:45.182Z,10.40
2018-03-11T18:02:12.655Z,9.77
2018-03-11T18:04:40.111Z,11.35
2018-03-11T18:07:07.915Z,10.85
2018-03-11T18:09:35.399Z,12.13
2018-03-11T18:12:02.869Z,11.82
2018-03-11T18:14:30.351Z,11.55
2018-03-11T18:16:57.846Z,12.55
2018-03-11T18:19:25.459Z,11.18
2018-03-11T18:21:52.945Z,10.23
2018-03-11T18:24:20.425Z,10.57
2018-03-11T18:26:47.884Z,10.80
2018-03-11T18:29:15.399Z,10.50
2018-03-11T18:31:42.901Z,10.63
2018-03-11T18:34:10.446Z,10.23
2018-03-11T18:36:37.965Z,11.55
2018-03-11T18:39:05.727Z,11.27
2018-03-11T18:41:33.243Z,10.20
2018-03-11T18:44:00.732Z,10.65
2018-03-11T18:46:28.234Z,9.93
2018-03-11T18:48:55.746Z,9.88
2018-03-11T18:51:23.523Z,9.93
2018-03-11T18:53:50.988Z,9.37
2018-03-11T18:56:18.469Z,9.35
2018-03-11T18:58:46.099Z,8.50
2018-03-11T19:01:13.572Z,8.23
2018-03-11T19:03:41.106Z,8.82
2018-03-11T19:06:08.537Z,8.38
2018-03-11T19:08:36.015Z,8.43
2018-03-11T19:11:03.511Z,13.07
2018-03-11T19:13:31.123Z,10.67
2018-03-11T19:15:58.630Z,9.68
2018-03-11T19:18:26.148Z,8.93
2018-03-11T19:20:53.645Z,9.57
2018-03-11T19:23:21.107Z,9.50
2018-03-11T19:25:48.576Z,9.43
2018-03-11T19:28:16.220Z,9.40
2018-03-11T19:30:43.709Z,10.82
2018-03-11T19:33:11.168Z,11.47
2018-03-11T19:35:38.666Z,11.53
2018-03-11T19:38:06.164Z,11.73
2018-03-11T19:40:33.672Z,12.10
2018-03-11T19:43:01.151Z,13.60
2018-03-11T19:45:28.711Z,14.20
2018-03-11T19:47:56.199Z,15.57
2018-03-11T19:50:23.731Z,15.67
2018-03-11T19:52:51.546Z,15.90
2018-03-11T19:55:19.152Z,16.43
2018-03-11T19:57:46.630Z,17.70
2018-03-11T20:00:14.135Z,17.97
2018-03-11T20:02:41.645Z,17.23
2018-03-11T20:05:09.165Z,16.90
2018-03-11T20:07:36.618Z,17.33
2018-03-11T20:10:05.039Z,17.90
2018-03-11T20:12:32.534Z,17.77
2018-03-11T20:15:00.044Z,18.80
2018-03-11T20:17:27.530Z,18.60
2018-03-11T20:19:55.012Z,19.97
2018-03-11T20:22:22.499Z,18.60
2018-03-11T20:24:50.012Z,20.10
2018-03-11T20:27:17.515Z,19.00
2018-03-11T20:29:45.039Z,19.60
2018-03-11T20:32:12.536Z,19.37
2018-03-11T20:34:40.084Z,20.87
2018-03-11T20:37:07.564Z,20.00
2018-03-11T20:39:35.095Z,19.80
2018-03-11T20:42:02.550Z,21.13
2018-03-11T20:44:30.030Z,20.43
2018-03-11T20:46:57.504Z,20.83
2018-03-11T20:49:25.031Z,22.23
2018-03-11T20:51:52.558Z,21.83
2018-03-11T20:54:20.012Z,22.20
2018-03-11T20:56:47.467Z,20.97
2018-03-11T20:59:14.948Z,22.33
2018-03-11T21:01:42.420Z,21.93
2018-03-11T21:04:09.910Z,21.93
2018-03-11T21:06:37.346Z,20.37
2018-03-11T21:09:05.843Z,21.97
2018-03-11T21:11:33.314Z,21.93
2018-03-11T21:14:00.766Z,22.53
2018-03-11T21:16:28.273Z,21.47
2018-03-11T21:18:55.710Z,21.97
2018-03-11T21:21:23.260Z,23.03
2018-03-11T21:23:50.798Z,24.13
2018-03-11T21:26:18.225Z,22.13
2018-03-11T21:28:45.674Z,22.93
2018-03-11T21:31:14.307Z,23.57
2018-03-11T21:33:41.838Z,22.20
2018-03-11T21:36:09.382Z,22.90
2018-03-11T21:38:36.948Z,22.57
2018-03-11T21:41:04.446Z,22.77
2018-03-11T21:43:31.931Z,23.77
2018-03-11T21:45:59.386Z,22.93
2018-03-11T21:48:26.829Z,23.47
2018-03-11T21:50:54.314Z,23.63
2018-03-11T21:53:21.806Z,22.70
2018-03-11T21:55:49.273Z,23.93
2018-03-11T21:58:16.762Z,22.13
2018-03-11T22:00:44.260Z,22.77
2018-03-11T22:03:11.746Z,23.33
2018-03-11T22:05:39.250Z,22.70
2018-03-11T22:08:06.728Z,23.27
2018-03-11T22:10:34.214Z,23.57
2018-03-11T22:13:01.690Z,23.17
2018-03-11T22:15:29.182Z,23.67
2018-03-11T22:17:56.656Z,23.53
2018-03-11T22:20:24.149Z,23.53
2018-03-11T22:22:51.712Z,23.33
2018-03-11T22:25:19.199Z,22.43
2018-03-11T22:27:46.664Z,23.07
2018-03-11T22:30:14.132Z,23.03
2018-03-11T22:32:41.575Z,22.90
2018-03-11T22:35:09.027Z,23.63
2018-03-11T22:37:36.481Z,23.83
2018-03-11T22:40:04.012Z,23.27
2018-03-11T22:42:31.492Z,23.40
2018-03-11T22:44:58.974Z,24.07
2018-03-11T22:47:26.456Z,24.27
2018-03-11T22:49:53.975Z,23.87
2018-03-11T22:52:21.883Z,24.23
2018-03-11T22:54:49.355Z,23.33
2018-03-11T22:57:16.914Z,23.33
2018-03-11T22:59:44.443Z,23.53
2018-03-11T23:02:11.906Z,23.63
2018-03-11T23:04:39.697Z,22.83
2018-03-11T23:07:07.209Z,24.00
2018-03-11T23:09:34.741Z,23.17
2018-03-11T23:12:02.213Z,22.57
2018-03-11T23:14:29.677Z,24.00
2018-03-11T23:16:57.162Z,22.37
2018-03-11T23:19:24.708Z,21.90
2018-03-11T23:22:01.862Z,23.60
2018-03-11T23:24:29.315Z,23.50
2018-03-11T23:26:56.767Z,22.43
2018-03-11T23:29:24.250Z,22.43
2018-03-11T23:31:51.735Z,22.37
2018-03-11T23:34:19.202Z,22.70
2018-03-11T23:36:46.710Z,22.50
2018-03-11T23:39:14.184Z,21.20
2018-03-11T23:41:41.666Z,22.77
2018-03-11T23:44:09.173Z,22.07
2018-03-11T23:46:36.674Z,22.90
2018-03-11T23:49:04.173Z,22.97
2018-03-11T23:51:31.704Z,23.07
2018-03-11T23:53:59.161Z,21.23
2018-03-11T23:56:26.615Z,23.27
2018-03-11T23:58:54.066Z,21.13
